createdAt,value
2022-09-28T00:02:24.360Z,100259.00
2022-09-28T00:04:53.776Z,100260.47
2022-09-28T00:07:21.695Z,100260.59
2022-09-28T00:09:49.607Z,100255.44
2022-09-28T00:12:18.464Z,100255.78
2022-09-28T00:14:46.352Z,100268.44
2022-09-28T00:17:16.464Z,100263.31
2022-09-28T00:19:46.028Z,100263.53
2022-09-28T00:22:15.453Z,100267.84
2022-09-28T00:24:45.158Z,100269.53
2022-09-28T00:27:13.052Z,100269.31
2022-09-28T00:29:40.933Z,100273.47
2022-09-28T00:32:11.796Z,100272.50
2022-09-28T00:34:42.491Z,100277.03
2022-09-28T00:37:10.754Z,100272.00
2022-09-28T00:39:41.363Z,100270.38
2022-09-28T00:42:16.242Z,100271.13
2022-09-28T00:44:47.028Z,100271.13
2022-09-28T00:47:28.228Z,100268.31
2022-09-28T00:49:57.768Z,100260.28
2022-09-28T00:52:27.858Z,100269.53
2022-09-28T00:54:57.470Z,100270.59
2022-09-28T00:57:25.346Z,100277.78
2022-09-28T00:59:53.280Z,100275.22
2022-09-28T01:02:21.245Z,100269.00
2022-09-28T01:04:49.364Z,100264.50
2022-09-28T01:07:17.888Z,100269.97
2022-09-28T01:09:45.977Z,100275.44
2022-09-28T01:12:15.303Z,100271.06
2022-09-28T01:14:43.206Z,100274.69
2022-09-28T01:17:14.556Z,100266.03
2022-09-28T01:19:57.116Z,100276.94
2022-09-28T01:22:30.464Z,100267.91
2022-09-28T01:25:01.021Z,100271.25
2022-09-28T01:27:30.649Z,100266.72
2022-09-28T01:30:01.679Z,100263.31
2022-09-28T01:32:35.900Z,100264.50
2022-09-28T01:35:06.602Z,100256.66
2022-09-28T01:37:38.387Z,100270.84
2022-09-28T01:40:07.352Z,100274.34
2022-09-28T01:42:37.386Z,100269.97
2022-09-28T01:45:07.366Z,100261.75
2022-09-28T01:47:36.854Z,100275.34
2022-09-28T01:50:07.250Z,100268.03
2022-09-28T01:52:36.176Z,100273.63
2022-09-28T01:55:07.321Z,100263.97
2022-09-28T01:57:38.917Z,100265.91
2022-09-28T02:00:08.449Z,100260.88
2022-09-28T02:02:37.406Z,100258.53
2022-09-28T02:05:06.886Z,100265.00
2022-09-28T02:07:38.316Z,100257.25
2022-09-28T02:10:09.713Z,100265.50
2022-09-28T02:12:40.488Z,100263.69
2022-09-28T02:15:12.660Z,100264.44
2022-09-28T02:17:40.625Z,100267.84
2022-09-28T02:20:09.078Z,100267.84
2022-09-28T02:22:40.633Z,100265.28
2022-09-28T02:25:10.926Z,100259.06
2022-09-28T02:27:42.331Z,100266.25
2022-09-28T02:30:10.762Z,100264.50
2022-09-28T02:32:41.004Z,100263.75
2022-09-28T02:35:09.521Z,100261.09
2022-09-28T02:37:37.342Z,100255.00
2022-09-28T02:40:13.720Z,100216.28
2022-09-28T02:42:47.554Z,100254.69
2022-09-28T02:45:18.619Z,100254.03
2022-09-28T02:47:54.549Z,100256.09
2022-09-28T02:50:25.657Z,100251.38
2022-09-28T02:53:07.900Z,100254.28
2022-09-28T02:55:43.269Z,100257.28
2022-09-28T02:58:20.461Z,100255.88
2022-09-28T03:00:53.473Z,100249.91
2022-09-28T03:03:22.821Z,100244.13
2022-09-28T03:05:55.099Z,100252.91
2022-09-28T03:08:25.097Z,100234.81
2022-09-28T03:10:56.561Z,100236.50
2022-09-28T03:13:25.908Z,100252.91
2022-09-28T03:15:53.794Z,100244.88
2022-09-28T03:18:21.695Z,100242.06
2022-09-28T03:20:50.150Z,100252.47
2022-09-28T03:23:24.838Z,100255.69
2022-09-28T03:25:53.313Z,100255.44
2022-09-28T03:28:22.008Z,100251.63
2022-09-28T03:30:51.331Z,100261.03
2022-09-28T03:33:19.802Z,100265.31
2022-09-28T03:35:48.123Z,100258.03
2022-09-28T03:38:16.237Z,100261.25
2022-09-28T03:40:44.232Z,100268.09
2022-09-28T03:43:12.236Z,100267.00
2022-09-28T03:45:40.166Z,100264.34
2022-09-28T03:48:09.533Z,100265.28
2022-09-28T03:50:37.437Z,100269.69
2022-09-28T03:53:05.380Z,100275.91
2022-09-28T03:55:33.622Z,100265.53
2022-09-28T03:58:01.515Z,100269.47
2022-09-28T04:00:29.938Z,100273.13
2022-09-28T04:02:57.965Z,100277.72
2022-09-28T04:05:27.299Z,100283.06
2022-09-28T04:07:57.788Z,100276.88
2022-09-28T04:10:25.824Z,100284.81
2022-09-28T04:12:55.656Z,100281.16
2022-09-28T04:15:23.613Z,100279.25
2022-09-28T04:17:51.586Z,100288.97
2022-09-28T04:20:19.468Z,100288.97
2022-09-28T04:22:48.842Z,100281.78
2022-09-28T04:25:17.332Z,100280.81
2022-09-28T04:28:02.495Z,100292.50
2022-09-28T04:30:30.380Z,100281.16
2022-09-28T04:32:58.235Z,100285.66
2022-09-28T04:35:26.135Z,100285.75
2022-09-28T04:37:55.401Z,100282.25
2022-09-28T04:40:23.467Z,100285.00
2022-09-28T04:42:55.007Z,100286.84
2022-09-28T04:45:22.985Z,100289.53
2022-09-28T04:47:50.890Z,100286.84
2022-09-28T04:50:18.778Z,100278.81
2022-09-28T04:52:46.980Z,100279.66
2022-09-28T04:55:17.023Z,100280.50
2022-09-28T04:57:44.932Z,100275.03
2022-09-28T05:00:14.119Z,100282.88
2022-09-28T05:02:42.129Z,100281.78
2022-09-28T05:05:10.338Z,100278.91
2022-09-28T05:07:38.262Z,100284.16
2022-09-28T05:10:06.845Z,100284.78
2022-09-28T05:12:36.137Z,100271.50
2022-09-28T05:15:04.233Z,100275.56
2022-09-28T05:17:32.479Z,100279.56
2022-09-28T05:20:00.716Z,100272.59
2022-09-28T05:22:28.674Z,100264.75
2022-09-28T05:24:58.263Z,100275.72
2022-09-28T05:27:26.169Z,100272.16
2022-09-28T05:29:55.532Z,100276.78
2022-09-28T05:32:23.419Z,100276.03
2022-09-28T05:34:51.308Z,100273.34
2022-09-28T05:37:19.236Z,100272.25
2022-09-28T05:39:47.106Z,100272.25
2022-09-28T05:42:15.015Z,100272.06
2022-09-28T05:44:42.921Z,100269.38
2022-09-28T05:47:12.157Z,100276.47
2022-09-28T05:49:40.043Z,100271.09
2022-09-28T05:52:07.923Z,100271.72
2022-09-28T05:54:35.813Z,100277.72
2022-09-28T05:57:03.765Z,100269.59
2022-09-28T05:59:31.696Z,100272.34
2022-09-28T06:01:59.713Z,100282.75
2022-09-28T06:04:29.064Z,100289.72
2022-09-28T06:06:57.012Z,100288.75
2022-09-28T06:09:26.039Z,100280.81
2022-09-28T06:11:54.111Z,100280.81
2022-09-28T06:14:22.309Z,100289.94
2022-09-28T06:16:50.406Z,100294.66
2022-09-28T06:19:18.350Z,100294.88
2022-09-28T06:21:48.409Z,100292.84
2022-09-28T06:24:16.788Z,100289.81
2022-09-28T06:26:44.877Z,100272.28
2022-09-28T06:29:18.673Z,100293.69
2022-09-28T06:31:47.701Z,100305.13
2022-09-28T06:34:15.860Z,100298.66
2022-09-28T06:36:44.017Z,100298.13
2022-09-28T06:39:13.339Z,100303.69
2022-09-28T06:41:41.277Z,100297.38
2022-09-28T06:44:09.577Z,100305.31
2022-09-28T06:46:38.306Z,100306.13
2022-09-28T06:49:09.292Z,100305.38
2022-09-28T06:51:37.719Z,100319.53
2022-09-28T06:54:05.779Z,100326.47
2022-09-28T06:56:35.072Z,100331.19
2022-09-28T06:59:02.905Z,100339.72
2022-09-28T07:01:30.908Z,100338.91
2022-09-28T07:03:58.983Z,100344.84
2022-09-28T07:06:26.899Z,100338.00
2022-09-28T07:09:04.208Z,100329.00
2022-09-28T07:11:44.755Z,100304.91
2022-09-28T07:14:25.162Z,100325.25
2022-09-28T07:17:13.811Z,100320.56
2022-09-28T07:19:42.422Z,100320.56
2022-09-28T07:22:18.421Z,100334.50
2022-09-28T07:24:46.606Z,100333.13
2022-09-28T07:27:15.991Z,100331.88
2022-09-28T07:29:43.870Z,100327.09
2022-09-28T07:32:11.825Z,100318.69
2022-09-28T07:34:43.861Z,100323.38
2022-09-28T07:37:12.539Z,100313.03
2022-09-28T07:39:54.438Z,100324.94
2022-09-28T07:42:23.810Z,100317.97
2022-09-28T07:44:51.766Z,100321.88
2022-09-28T07:47:29.668Z,100328.91
2022-09-28T07:50:00.341Z,100319.91
2022-09-28T07:52:28.956Z,100328.78
2022-09-28T07:54:57.249Z,100318.44
2022-09-28T07:57:26.627Z,100321.22
2022-09-28T07:59:54.743Z,100319.69
2022-09-28T08:02:23.162Z,100321.59
2022-09-28T08:04:51.960Z,100330.38
2022-09-28T08:07:23.671Z,100328.22
2022-09-28T08:09:52.024Z,100326.63
2022-09-28T08:12:21.145Z,100335.91
2022-09-28T08:14:52.306Z,100334.72
2022-09-28T08:17:20.324Z,100336.09
2022-09-28T08:20:05.796Z,100337.34
2022-09-28T08:22:33.786Z,100345.81
2022-09-28T08:25:01.651Z,100346.06
2022-09-28T08:27:29.665Z,100343.72
2022-09-28T08:29:58.962Z,100338.84
2022-09-28T08:32:26.890Z,100340.72
2022-09-28T08:34:56.007Z,100340.19
2022-09-28T08:37:23.900Z,100340.28
2022-09-28T08:39:51.819Z,100303.09
2022-09-28T08:42:30.558Z,100341.84
2022-09-28T08:45:01.125Z,100350.75
2022-09-28T08:47:47.984Z,100346.13
2022-09-28T08:50:18.322Z,100355.47
2022-09-28T08:52:47.844Z,100355.72
2022-09-28T08:55:19.980Z,100350.78
2022-09-28T08:57:49.740Z,100346.41
2022-09-28T09:00:21.912Z,100351.03
2022-09-28T09:02:49.855Z,100359.63
2022-09-28T09:05:19.943Z,100345.38
2022-09-28T09:07:57.534Z,100345.25
2022-09-28T09:10:53.794Z,100345.38
2022-09-28T09:13:52.891Z,100344.88
2022-09-28T09:16:29.094Z,100350.75
2022-09-28T09:18:59.304Z,100342.59
2022-09-28T09:21:39.935Z,100338.13
2022-09-28T09:24:16.927Z,100345.47
2022-09-28T09:26:44.914Z,100347.66
2022-09-28T09:29:46.220Z,100350.16
2022-09-28T09:32:23.654Z,100348.72
2022-09-28T09:35:07.888Z,100354.81
2022-09-28T09:37:47.171Z,100356.41
2022-09-28T09:40:26.369Z,100326.09
2022-09-28T09:43:02.071Z,100340.97
2022-09-28T09:45:36.810Z,100340.84
2022-09-28T09:48:08.837Z,100348.06
2022-09-28T09:50:39.970Z,100355.41
2022-09-28T09:53:10.907Z,100348.31
2022-09-28T09:55:41.891Z,100342.69
2022-09-28T09:58:11.832Z,100343.31
2022-09-28T10:00:41.789Z,100349.19
2022-09-28T10:03:16.837Z,100334.97
2022-09-28T10:05:44.807Z,100347.09
2022-09-28T10:08:14.491Z,100335.09
2022-09-28T10:10:49.141Z,100342.78
2022-09-28T10:13:17.006Z,100342.56
2022-09-28T10:15:45.380Z,100334.25
2022-09-28T10:18:15.806Z,100339.72
2022-09-28T10:20:45.214Z,100340.81
2022-09-28T10:23:16.864Z,100346.19
2022-09-28T10:25:44.781Z,100327.16
2022-09-28T10:28:14.959Z,100348.91
2022-09-28T10:30:44.729Z,100349.28
2022-09-28T10:33:32.455Z,100348.81
2022-09-28T10:36:00.842Z,100342.22
2022-09-28T10:38:29.380Z,100345.66
2022-09-28T10:41:00.135Z,100343.28
2022-09-28T10:43:28.902Z,100344.91
2022-09-28T10:46:04.489Z,100301.22
2022-09-28T10:48:40.047Z,100350.47
2022-09-28T10:51:08.613Z,100348.38
2022-09-28T10:53:37.088Z,100342.63
2022-09-28T10:56:05.846Z,100339.22
2022-09-28T10:58:38.287Z,100328.84
2022-09-28T11:01:10.594Z,100335.63
2022-09-28T11:03:49.793Z,100320.38
2022-09-28T11:06:17.738Z,100329.91
2022-09-28T11:08:46.262Z,100325.75
2022-09-28T11:11:14.870Z,100330.09
2022-09-28T11:13:46.718Z,100331.09
2022-09-28T11:16:36.216Z,100325.34
2022-09-28T11:19:07.114Z,100320.75
2022-09-28T11:21:42.487Z,100316.50
2022-09-28T11:24:20.116Z,100312.44
2022-09-28T11:26:50.617Z,100317.59
2022-09-28T11:29:23.500Z,100314.94
2022-09-28T11:31:51.442Z,100302.19
2022-09-28T11:34:41.545Z,100306.91
2022-09-28T11:37:46.973Z,100310.09
2022-09-28T11:40:21.808Z,100325.97
2022-09-28T11:42:53.678Z,100321.75
2022-09-28T11:45:32.893Z,100314.34
2022-09-28T11:48:01.734Z,100287.94
2022-09-28T11:50:33.895Z,100313.56
2022-09-28T11:53:10.261Z,100306.06
2022-09-28T11:55:41.588Z,100303.63
2022-09-28T11:58:12.444Z,100315.94
2022-09-28T12:00:44.304Z,100319.16
2022-09-28T12:03:15.335Z,100331.59
2022-09-28T12:05:46.244Z,100326.03
2022-09-28T12:08:15.743Z,100318.19
2022-09-28T12:10:48.152Z,100314.22
2022-09-28T12:13:18.831Z,100315.72
2022-09-28T12:16:15.082Z,100315.16
2022-09-28T12:18:39.957Z,100304.84
2022-09-28T12:21:20.408Z,100305.50
2022-09-28T12:23:48.445Z,100313.75
2022-09-28T12:26:29.639Z,100298.03
2022-09-28T12:28:58.756Z,100303.94
2022-09-28T12:31:30.095Z,100302.97
2022-09-28T12:33:57.972Z,100299.13
2022-09-28T12:36:33.903Z,100294.63
2022-09-28T12:39:40.923Z,100293.31
2022-09-28T12:42:06.333Z,100290.34
2022-09-28T12:44:45.446Z,100286.47
2022-09-28T12:47:35.143Z,100297.47
2022-09-28T12:53:08.644Z,100283.69
2022-09-28T12:55:49.985Z,100290.88
2022-09-28T12:58:30.179Z,100284.78
2022-09-28T13:01:01.857Z,100276.25
2022-09-28T13:03:55.258Z,100289.09
2022-09-28T13:06:32.018Z,100284.81
2022-09-28T13:09:15.806Z,100259.72
2022-09-28T13:11:47.124Z,100269.88
2022-09-28T13:14:39.692Z,100289.63
2022-09-28T13:17:11.748Z,100283.75
2022-09-28T13:19:42.053Z,100286.81
2022-09-28T13:22:18.652Z,100283.97
2022-09-28T13:24:48.055Z,100288.00
2022-09-28T13:27:17.254Z,100273.88
2022-09-28T13:29:45.147Z,100277.56
2022-09-28T13:32:13.249Z,100286.50
2022-09-28T13:34:41.160Z,100291.22
2022-09-28T13:37:11.298Z,100293.31
2022-09-28T13:39:52.082Z,100278.06
2022-09-28T13:42:35.970Z,100277.78
2022-09-28T13:45:22.550Z,100280.97
2022-09-28T13:48:01.667Z,100280.25
2022-09-28T13:50:34.397Z,100276.94
2022-09-28T13:53:05.804Z,100277.53
2022-09-28T13:55:38.735Z,100282.06
2022-09-28T13:58:07.969Z,100270.97
2022-09-28T14:00:38.951Z,100276.22
2022-09-28T14:03:14.938Z,100274.28
2022-09-28T14:05:49.090Z,100268.19
2022-09-28T14:08:29.764Z,100264.03
2022-09-28T14:11:00.452Z,100266.13
2022-09-28T14:14:01.595Z,100257.91
2022-09-28T14:16:31.259Z,100266.97
2022-09-28T14:19:01.496Z,100260.38
2022-09-28T14:21:56.084Z,100265.72
2022-09-28T14:24:38.340Z,100267.88
2022-09-28T14:27:35.927Z,100266.75
2022-09-28T14:30:08.891Z,100260.94
2022-09-28T14:32:37.536Z,100252.75
2022-09-28T14:35:06.339Z,100256.28
2022-09-28T14:37:49.392Z,100236.56
2022-09-28T14:40:38.535Z,100260.13
2022-09-28T14:43:39.977Z,100262.91
2022-09-28T14:46:29.441Z,100257.19
2022-09-28T14:48:58.217Z,100256.44
2022-09-28T14:51:45.233Z,100260.53
2022-09-28T14:54:17.151Z,100251.94
2022-09-28T14:56:46.238Z,100259.63
2022-09-28T14:59:18.344Z,100249.91
2022-09-28T15:01:46.697Z,100260.56
2022-09-28T15:04:14.898Z,100262.56
2022-09-28T15:06:46.527Z,100255.47
2022-09-28T15:09:30.035Z,100258.44
2022-09-28T15:12:01.284Z,100261.59
2022-09-28T15:14:32.074Z,100257.31
2022-09-28T15:17:03.469Z,100250.22
2022-09-28T15:19:32.435Z,100253.31
2022-09-28T15:22:00.295Z,100263.50
2022-09-28T15:24:31.462Z,100263.06
2022-09-28T15:26:59.831Z,100271.50
2022-09-28T15:29:31.356Z,100266.72
2022-09-28T15:32:00.676Z,100258.44
2022-09-28T15:34:47.264Z,100255.78
2022-09-28T15:37:15.229Z,100258.16
2022-09-28T15:39:44.225Z,100256.38
2022-09-28T15:42:12.162Z,100254.25
2022-09-28T15:44:43.039Z,100253.84
2022-09-28T15:47:14.931Z,100251.25
2022-09-28T15:49:45.509Z,100252.22
2022-09-28T15:52:25.052Z,100240.00
2022-09-28T15:54:52.977Z,100241.69
2022-09-28T15:57:33.610Z,100248.50
2022-09-28T16:00:01.863Z,100256.84
2022-09-28T16:02:31.314Z,100249.78
2022-09-28T16:05:00.864Z,100242.09
2022-09-28T16:07:35.381Z,100241.16
2022-09-28T16:10:06.438Z,100242.13
2022-09-28T16:12:46.571Z,100239.22
2022-09-28T16:15:20.350Z,100238.38
2022-09-28T16:17:55.394Z,100226.19
2022-09-28T16:20:29.181Z,100243.88
2022-09-28T16:22:57.826Z,100239.78
2022-09-28T16:25:26.349Z,100240.25
2022-09-28T16:27:55.161Z,100239.22
2022-09-28T16:30:24.963Z,100239.72
2022-09-28T16:32:56.522Z,100232.66
2022-09-28T16:35:31.850Z,100231.78
2022-09-28T16:38:02.373Z,100245.47
2022-09-28T16:40:30.589Z,100227.75
2022-09-28T16:42:59.788Z,100229.22
2022-09-28T16:45:28.459Z,100241.94
2022-09-28T16:47:58.378Z,100236.47
2022-09-28T16:50:26.930Z,100241.13
2022-09-28T16:53:16.845Z,100224.16
2022-09-28T16:55:45.200Z,100230.75
2022-09-28T16:58:13.138Z,100232.19
2022-09-28T17:00:43.551Z,100239.13
2022-09-28T17:03:15.233Z,100234.34
2022-09-28T17:05:43.488Z,100233.91
2022-09-28T17:08:13.582Z,100229.84
2022-09-28T17:11:02.475Z,100251.34
2022-09-28T17:13:33.302Z,100255.09
2022-09-28T17:16:01.769Z,100258.84
2022-09-28T17:18:32.242Z,100259.06
2022-09-28T17:21:04.094Z,100274.41
2022-09-28T17:23:32.398Z,100283.75
2022-09-28T17:26:00.525Z,100276.31
2022-09-28T17:28:29.356Z,100287.06
2022-09-28T17:30:57.344Z,100284.91
2022-09-28T17:33:25.516Z,100297.94
2022-09-28T17:35:58.036Z,100287.84
2022-09-28T17:38:26.019Z,100279.97
2022-09-28T17:40:53.998Z,100287.56
2022-09-28T17:43:22.424Z,100286.59
2022-09-28T17:45:50.745Z,100286.88
2022-09-28T17:48:19.434Z,100278.72
2022-09-28T17:50:47.477Z,100268.72
2022-09-28T17:53:16.857Z,100279.63
2022-09-28T17:55:44.773Z,100277.91
2022-09-28T17:58:19.297Z,100273.13
2022-09-28T18:00:47.888Z,100277.09
2022-09-28T18:03:16.671Z,100267.38
2022-09-28T18:05:44.889Z,100277.28
2022-09-28T18:08:13.761Z,100263.59
2022-09-28T18:10:43.093Z,100274.66
2022-09-28T18:13:11.530Z,100269.22
2022-09-28T18:15:39.525Z,100267.38
2022-09-28T18:18:09.516Z,100266.56
2022-09-28T18:20:37.469Z,100266.28
2022-09-28T18:23:05.357Z,100268.41
2022-09-28T18:25:33.265Z,100267.94
2022-09-28T18:28:02.750Z,100266.56
2022-09-28T18:30:31.064Z,100254.44
2022-09-28T18:32:59.054Z,100258.41
2022-09-28T18:35:27.089Z,100266.72
2022-09-28T18:37:55.514Z,100272.25
2022-09-28T18:40:23.464Z,100267.88
2022-09-28T18:42:51.506Z,100230.25
2022-09-28T18:45:20.820Z,100267.78
2022-09-28T18:47:48.732Z,100273.00
2022-09-28T18:50:16.701Z,100273.88
2022-09-28T18:52:44.851Z,100269.28
2022-09-28T18:55:13.177Z,100269.91
2022-09-28T18:57:41.888Z,100270.78
2022-09-28T19:00:10.906Z,100267.72
2022-09-28T19:02:40.748Z,100283.25
2022-09-28T19:05:09.377Z,100265.19
2022-09-28T19:07:37.625Z,100270.88
2022-09-28T19:10:06.440Z,100258.88
2022-09-28T19:12:34.589Z,100265.09
2022-09-28T19:15:02.556Z,100269.69
2022-09-28T19:17:30.521Z,100268.09
2022-09-28T19:19:59.993Z,100270.88
2022-09-28T19:22:27.895Z,100270.00
2022-09-28T19:24:56.541Z,100230.50
2022-09-28T19:27:24.553Z,100276.78
2022-09-28T19:29:52.779Z,100272.38
2022-09-28T19:32:20.775Z,100270.56
2022-09-28T19:34:48.727Z,100277.41
2022-09-28T19:37:19.692Z,100275.31
2022-09-28T19:39:47.613Z,100270.53
2022-09-28T19:42:15.524Z,100275.53
2022-09-28T19:44:43.944Z,100252.75
2022-09-28T19:47:13.108Z,100281.03
2022-09-28T19:49:41.604Z,100278.88
2022-09-28T19:52:16.039Z,100276.00
2022-09-28T19:54:57.013Z,100275.69
2022-09-28T19:57:26.063Z,100268.94
2022-09-28T19:59:57.860Z,100283.19
2022-09-28T20:02:29.162Z,100280.19
2022-09-28T20:04:57.163Z,100286.91
2022-09-28T20:07:25.040Z,100290.31
2022-09-28T20:09:54.546Z,100290.63
2022-09-28T20:12:22.548Z,100281.25
2022-09-28T20:14:59.695Z,100287.13
2022-09-28T20:17:27.637Z,100284.09
2022-09-28T20:19:58.992Z,100264.91
2022-09-28T20:22:27.020Z,100285.22
2022-09-28T20:25:00.186Z,100280.38
2022-09-28T20:27:31.076Z,100281.44
2022-09-28T20:30:00.062Z,100270.47
2022-09-28T20:32:28.006Z,100281.75
2022-09-28T20:34:56.107Z,100292.78
2022-09-28T20:37:26.877Z,100297.06
2022-09-28T20:39:56.310Z,100294.69
2022-09-28T20:42:24.361Z,100293.28
2022-09-28T20:44:52.554Z,100289.13
2022-09-28T20:47:21.564Z,100293.03
2022-09-28T20:49:54.680Z,100263.19
2022-09-28T20:52:30.246Z,100297.03
2022-09-28T20:54:59.728Z,100295.13
2022-09-28T20:57:27.696Z,100283.69
2022-09-28T21:00:03.214Z,100299.16
2022-09-28T21:02:31.545Z,100304.91
2022-09-28T21:05:05.990Z,100277.72
2022-09-28T21:07:36.406Z,100306.00
2022-09-28T21:10:07.158Z,100294.47
2022-09-28T21:12:35.932Z,100302.69
2022-09-28T21:15:06.262Z,100292.16
2022-09-28T21:17:34.241Z,100295.91
2022-09-28T21:20:02.456Z,100301.53
2022-09-28T21:22:30.931Z,100309.78
2022-09-28T21:24:58.833Z,100302.06
2022-09-28T21:27:28.137Z,100302.38
2022-09-28T21:29:56.039Z,100313.06
2022-09-28T21:32:24.324Z,100312.47
2022-09-28T21:34:52.755Z,100305.94
2022-09-28T21:37:20.638Z,100314.03
2022-09-28T21:39:48.563Z,100311.44
2022-09-28T21:42:16.485Z,100320.63
2022-09-28T21:44:45.780Z,100310.22
2022-09-28T21:47:13.672Z,100314.63
2022-09-28T21:49:41.554Z,100314.81
2022-09-28T21:52:09.509Z,100304.59
2022-09-28T21:54:37.388Z,100313.13
2022-09-28T21:57:05.452Z,100313.19
2022-09-28T21:59:33.324Z,100315.09
2022-09-28T22:02:04.859Z,100320.63
2022-09-28T22:04:32.733Z,100319.13
2022-09-28T22:07:00.645Z,100313.31
2022-09-28T22:09:28.529Z,100321.41
2022-09-28T22:11:56.391Z,100317.13
2022-09-28T22:14:24.265Z,100316.50
2022-09-28T22:16:52.178Z,100308.72
2022-09-28T22:19:21.490Z,100314.22
2022-09-28T22:21:57.299Z,100301.63
2022-09-28T22:24:25.391Z,100313.75
2022-09-28T22:26:53.304Z,100313.00
2022-09-28T22:29:22.054Z,100309.63
2022-09-28T22:31:49.937Z,100310.72
2022-09-28T22:34:17.848Z,100316.13
2022-09-28T22:36:47.285Z,100309.09
2022-09-28T22:39:15.161Z,100311.66
2022-09-28T22:41:43.836Z,100318.50
2022-09-28T22:44:11.793Z,100313.19
2022-09-28T22:46:39.735Z,100317.38
2022-09-28T22:49:07.753Z,100317.28
2022-09-28T22:51:35.697Z,100314.63
2022-09-28T22:54:05.065Z,100316.59
2022-09-28T22:56:33.009Z,100313.28
2022-09-28T22:59:00.914Z,100316.81
2022-09-28T23:01:29.747Z,100314.22
2022-09-28T23:03:57.828Z,100310.78
2022-09-28T23:06:26.561Z,100312.63
2022-09-28T23:08:54.609Z,100306.44
2022-09-28T23:11:23.937Z,100311.75
2022-09-28T23:13:51.961Z,100311.94
2022-09-28T23:16:20.051Z,100310.13
2022-09-28T23:18:49.263Z,100292.94
2022-09-28T23:21:18.507Z,100306.78
2022-09-28T23:23:46.532Z,100310.53
2022-09-28T23:26:15.018Z,100314.22
2022-09-28T23:28:44.337Z,100251.28
2022-09-28T23:31:13.770Z,100305.53
2022-09-28T23:33:41.738Z,100299.44
2022-09-28T23:36:09.703Z,100289.72
2022-09-28T23:38:37.581Z,100296.09
2022-09-28T23:41:05.517Z,100238.72
2022-09-28T23:43:33.522Z,100284.84
2022-09-28T23:46:03.015Z,100283.22
2022-09-28T23:48:31.046Z,100286.94
2022-09-28T23:50:59.105Z,100277.31
2022-09-28T23:53:27.161Z,100284.53
2022-09-28T23:55:55.099Z,100285.50
2022-09-28T23:58:23.019Z,100284.75
